Time;durP1;ratioP1;P1;durP2;ratioP2;P2;SDS_P1;SDS_P2;PMS_P1;PMS_P2;Temp;Humidity;BMP_temperature;BMP_pressure;BME280_temperature;BME280_humidity;BME280_pressure;Samples;Min_cycle;Max_cycle;Signal;HPM_P1;HPM_P2
2023/06/18 00:00:11;;;;;;;;;;;;;;;20.07;74.63;99076.09;5092116;28;19912;-36
2023/06/18 00:02:36;;;;;;;;;;;;;;;20.17;73.71;99081.41;5092478;28;20003;-35
2023/06/18 00:05:01;;;;;;;;;;;;;;;20.23;73.73;99077.56;5091977;28;20365;-36
2023/06/18 00:07:27;;;;;;;;;;;;;;;19.94;74.03;99069.44;5092003;28;19926;-36
2023/06/18 00:09:52;;;;;;;;;;;;;;;20.01;74.11;99078.03;5092088;28;20379;-35
2023/06/18 00:12:17;;;;;;;;;;;;;;;19.88;74.62;99079.47;5092062;28;19961;-36
2023/06/18 00:14:43;;;;;;;;;;;;;;;19.72;75.78;99086.03;5091758;28;19912;-35
2023/06/18 00:17:08;;;;;;;;;;;;;;;20.08;73.95;99078.50;5092237;28;19919;-36
2023/06/18 00:19:33;;;;;;;;;;;;;;;20.17;72.40;99076.00;5092356;28;19919;-36
2023/06/18 00:21:59;;;;;;;;;;;;;;;19.81;74.36;99078.16;5092805;28;20370;-35
2023/06/18 00:24:24;;;;;;;;;;;;;;;20.21;74.22;99087.84;5092397;28;19963;-36
2023/06/18 00:26:50;;;;;;;;;;;;;;;20.23;73.24;99074.84;5092587;28;19918;-36
2023/06/18 00:29:15;;;;;;;;;;;;;;;20.20;73.32;99075.44;5092020;28;19991;-37
2023/06/18 00:31:40;;;;;;;;;;;;;;;19.78;74.45;99079.53;5091712;28;19931;-37
2023/06/18 00:34:06;;;;;;;;;;;;;;;19.80;74.02;99077.38;5092506;28;19912;-35
2023/06/18 00:36:38;;;;;;;;;;;;;;;20.07;73.57;99078.78;5092259;28;20261;-36
2023/06/18 00:39:04;;;;;;;;;;;;;;;20.34;71.56;99080.19;5091947;28;19908;-36
2023/06/18 00:41:32;;;;;;;;;;;;;;;19.86;72.58;99073.53;5092169;28;19912;-36
2023/06/18 00:43:58;;;;;;;;;;;;;;;20.28;71.39;99072.13;5092079;28;19912;-36
2023/06/18 00:46:26;;;;;;;;;;;;;;;20.02;72.08;99078.81;5092002;28;19915;-36
2023/06/18 00:48:52;;;;;;;;;;;;;;;20.13;71.15;99077.66;5091989;28;19988;-36
2023/06/18 00:51:18;;;;;;;;;;;;;;;20.20;70.75;99072.75;5091846;28;19920;-36
2023/06/18 00:53:44;;;;;;;;;;;;;;;20.26;71.69;99074.31;5091947;28;19912;-36
2023/06/18 00:56:10;;;;;;;;;;;;;;;20.11;70.65;99071.72;5091574;28;19912;-36
2023/06/18 00:58:36;;;;;;;;;;;;;;;20.08;71.01;99067.69;5090216;28;20260;-36
2023/06/18 01:01:02;;;;;;;;;;;;;;;20.06;70.93;99069.06;5091929;28;19995;-36
2023/06/18 01:03:27;;;;;;;;;;;;;;;19.90;71.80;99065.69;5091513;28;20305;-36
2023/06/18 01:05:55;;;;;;;;;;;;;;;19.80;71.37;99071.97;5091037;28;20272;-36
2023/06/18 01:08:23;;;;;;;;;;;;;;;19.71;72.60;99076.31;5091615;28;19934;-38
2023/06/18 01:11:00;;;;;;;;;;;;;;;19.90;71.07;99081.88;5091758;28;20314;-37
2023/06/18 01:13:27;;;;;;;;;;;;;;;20.21;70.17;99076.25;5091645;28;19916;-37
2023/06/18 01:15:52;;;;;;;;;;;;;;;19.88;71.05;99073.25;5091527;28;20015;-37
2023/06/18 01:18:19;;;;;;;;;;;;;;;19.99;69.82;99069.41;5091510;28;19995;-37
2023/06/18 01:20:45;;;;;;;;;;;;;;;19.73;71.63;99076.88;5091774;28;19912;-37
2023/06/18 01:23:31;;;;;;;;;;;;;;;19.88;70.94;99084.06;5091468;28;20060;-37
2023/06/18 01:25:59;;;;;;;;;;;;;;;19.75;70.76;99071.19;5090852;28;19919;-37
2023/06/18 01:28:27;;;;;;;;;;;;;;;20.16;70.38;99082.47;5091383;28;20007;-37
2023/06/18 01:30:54;;;;;;;;;;;;;;;19.96;69.46;99079.97;5090676;28;19924;-37
2023/06/18 01:33:21;;;;;;;;;;;;;;;20.34;69.03;99085.59;5091350;28;19924;-37
2023/06/18 01:35:46;;;;;;;;;;;;;;;20.62;68.33;99086.69;5091456;28;20344;-37
2023/06/18 01:38:34;;;;;;;;;;;;;;;20.50;68.01;99081.66;5091105;28;19916;-37
2023/06/18 01:41:22;;;;;;;;;;;;;;;20.20;68.86;99090.81;5091395;28;19951;-37
2023/06/18 01:43:48;;;;;;;;;;;;;;;20.26;68.28;99093.22;5091066;28;20352;-37
2023/06/18 01:46:18;;;;;;;;;;;;;;;19.88;69.12;99103.75;5090800;28;20003;-37
2023/06/18 01:49:03;;;;;;;;;;;;;;;20.24;68.00;99100.78;5091183;28;19935;-37
2023/06/18 01:51:30;;;;;;;;;;;;;;;20.22;69.05;99105.69;5090889;28;19923;-37
2023/06/18 01:53:56;;;;;;;;;;;;;;;20.54;67.59;99103.50;5091366;28;20443;-37
2023/06/18 01:56:23;;;;;;;;;;;;;;;20.61;66.56;99110.22;5090956;28;19932;-37
2023/06/18 01:58:50;;;;;;;;;;;;;;;20.56;66.79;99112.97;5091056;28;19933;-37
2023/06/18 02:01:15;;;;;;;;;;;;;;;20.46;66.59;99118.44;5090569;28;19969;-37
2023/06/18 02:03:41;;;;;;;;;;;;;;;20.70;67.14;99118.53;5091362;28;19912;-37
2023/06/18 02:06:07;;;;;;;;;;;;;;;20.44;66.07;99118.72;5090699;28;20394;-37
2023/06/18 02:08:32;;;;;;;;;;;;;;;20.13;67.93;99122.78;5090928;28;19912;-37
2023/06/18 02:10:58;;;;;;;;;;;;;;;20.14;68.30;99116.28;5090944;28;20024;-37
2023/06/18 02:13:24;;;;;;;;;;;;;;;19.80;68.63;99119.72;5090850;28;19912;-37
2023/06/18 02:15:49;;;;;;;;;;;;;;;20.24;68.33;99124.31;5090253;28;20023;-37
2023/06/18 02:18:15;;;;;;;;;;;;;;;20.36;66.62;99124.75;5093086;28;19916;-37
2023/06/18 02:20:41;;;;;;;;;;;;;;;20.36;66.83;99129.34;5094543;28;20002;-37
2023/06/18 02:23:07;;;;;;;;;;;;;;;20.33;66.55;99135.31;5094722;28;19922;-37
2023/06/18 02:25:33;;;;;;;;;;;;;;;20.55;65.70;99130.25;5094706;28;20034;-37
2023/06/18 02:27:59;;;;;;;;;;;;;;;20.39;66.08;99134.16;5094467;28;19912;-37
2023/06/18 02:30:25;;;;;;;;;;;;;;;20.13;66.84;99141.69;5094293;28;19931;-37
2023/06/18 02:32:52;;;;;;;;;;;;;;;20.20;66.13;99142.97;5094735;28;19935;-37
2023/06/18 02:35:18;;;;;;;;;;;;;;;20.17;66.02;99146.22;5094562;28;20593;-36
2023/06/18 02:37:43;;;;;;;;;;;;;;;20.14;66.58;99148.69;5094568;28;20038;-37
2023/06/18 02:40:11;;;;;;;;;;;;;;;19.84;67.54;99129.72;5094051;28;20358;-36
2023/06/18 02:42:36;;;;;;;;;;;;;;;19.99;69.42;99147.72;5094018;28;19916;-36
2023/06/18 02:45:02;;;;;;;;;;;;;;;20.13;66.67;99150.59;5094192;28;19923;-37
2023/06/18 02:47:28;;;;;;;;;;;;;;;20.40;66.08;99154.69;5094012;28;20002;-36
2023/06/18 02:49:53;;;;;;;;;;;;;;;20.46;65.59;99150.88;5094119;28;20411;-36
2023/06/18 02:52:18;;;;;;;;;;;;;;;20.45;65.61;99162.78;5093895;28;19916;-36
2023/06/18 02:54:44;;;;;;;;;;;;;;;20.85;63.94;99158.94;5094055;28;19913;-36
2023/06/18 02:57:09;;;;;;;;;;;;;;;20.49;65.67;99156.50;5094091;28;19916;-36
2023/06/18 02:59:34;;;;;;;;;;;;;;;20.50;65.12;99163.53;5093992;28;19955;-36
2023/06/18 03:02:01;;;;;;;;;;;;;;;20.44;65.02;99164.66;5093693;28;19918;-36
2023/06/18 03:04:26;;;;;;;;;;;;;;;20.65;64.39;99165.31;5093740;28;19916;-36
2023/06/18 03:06:51;;;;;;;;;;;;;;;20.58;65.26;99166.69;5093545;28;19912;-36
2023/06/18 03:09:17;;;;;;;;;;;;;;;20.41;65.60;99161.69;5093882;28;19935;-37
2023/06/18 03:11:42;;;;;;;;;;;;;;;20.40;65.49;99168.22;5093445;28;19916;-36
2023/06/18 03:14:07;;;;;;;;;;;;;;;20.80;66.06;99175.19;5093564;28;19912;-36
2023/06/18 03:16:33;;;;;;;;;;;;;;;21.24;62.85;99184.22;5093733;28;20003;-36
2023/06/18 03:18:59;;;;;;;;;;;;;;;20.79;63.80;99178.16;5093274;28;19919;-36
2023/06/18 03:21:24;;;;;;;;;;;;;;;21.10;64.23;99184.09;5093842;28;19911;-37
2023/06/18 03:23:49;;;;;;;;;;;;;;;21.26;62.98;99188.25;5093382;28;20293;-37
2023/06/18 03:26:15;;;;;;;;;;;;;;;20.79;64.08;99199.81;5093479;28;19923;-36
2023/06/18 03:28:40;;;;;;;;;;;;;;;20.67;64.98;99198.28;5093098;28;20394;-36
2023/06/18 03:31:06;;;;;;;;;;;;;;;20.76;64.92;99193.06;5093042;28;19932;-37
2023/06/18 03:33:31;;;;;;;;;;;;;;;21.05;64.73;99198.47;5092939;28;19923;-35
2023/06/18 03:35:59;;;;;;;;;;;;;;;20.97;63.59;99203.72;5092933;28;19963;-35
2023/06/18 03:38:25;;;;;;;;;;;;;;;21.33;63.17;99203.34;5093001;28;19919;-36
2023/06/18 03:40:50;;;;;;;;;;;;;;;21.13;63.99;99204.34;5093017;28;19912;-35
2023/06/18 03:43:15;;;;;;;;;;;;;;;21.60;63.26;99202.78;5092960;28;19962;-36
2023/06/18 03:45:41;;;;;;;;;;;;;;;21.95;62.13;99201.53;5092900;28;20295;-36
2023/06/18 03:48:06;;;;;;;;;;;;;;;21.46;62.75;99203.47;5092718;28;20007;-36
2023/06/18 03:50:31;;;;;;;;;;;;;;;21.07;64.13;99203.59;5092750;28;20011;-36
2023/06/18 03:52:57;;;;;;;;;;;;;;;21.22;62.97;99208.06;5092773;28;19923;-36
2023/06/18 03:55:22;;;;;;;;;;;;;;;21.36;63.30;99209.00;5092949;28;20383;-36
2023/06/18 03:57:47;;;;;;;;;;;;;;;21.65;62.45;99208.16;5092769;28;20020;-36
2023/06/18 04:00:13;;;;;;;;;;;;;;;21.33;63.33;99212.25;5092888;28;19920;-36
2023/06/18 04:02:38;;;;;;;;;;;;;;;21.38;63.21;99217.63;5092711;28;20077;-36
2023/06/18 04:05:03;;;;;;;;;;;;;;;21.58;63.01;99222.00;5092983;28;19913;-36
2023/06/18 04:07:29;;;;;;;;;;;;;;;21.60;62.76;99219.03;5092620;28;20367;-36
2023/06/18 04:09:54;;;;;;;;;;;;;;;21.78;62.20;99222.84;5092905;28;19912;-36
2023/06/18 04:12:19;;;;;;;;;;;;;;;21.57;62.79;99228.53;5092670;28;20338;-36
2023/06/18 04:14:45;;;;;;;;;;;;;;;22.00;63.14;99235.84;5092381;28;20050;-36
2023/06/18 04:17:10;;;;;;;;;;;;;;;21.60;63.19;99235.28;5092313;28;20031;-36
2023/06/18 04:19:35;;;;;;;;;;;;;;;21.71;62.02;99231.34;5092800;28;19916;-36
2023/06/18 04:22:01;;;;;;;;;;;;;;;21.90;61.97;99236.81;5092352;28;20345;-38
2023/06/18 04:24:26;;;;;;;;;;;;;;;21.49;63.26;99234.56;5092409;28;19947;-37
2023/06/18 04:26:51;;;;;;;;;;;;;;;21.71;63.01;99235.97;5092423;28;19920;-37
2023/06/18 04:29:16;;;;;;;;;;;;;;;21.71;62.67;99239.47;5092177;28;19919;-36
2023/06/18 04:31:42;;;;;;;;;;;;;;;22.04;61.65;99242.31;5091733;28;20003;-37
2023/06/18 04:34:07;;;;;;;;;;;;;;;22.00;62.27;99233.16;5092525;28;20333;-36
2023/06/18 04:36:33;;;;;;;;;;;;;;;21.88;62.49;99247.13;5092137;28;19919;-36
2023/06/18 04:38:59;;;;;;;;;;;;;;;21.68;62.76;99245.44;5091938;28;19970;-36
2023/06/18 04:41:24;;;;;;;;;;;;;;;22.16;62.67;99248.09;5091425;28;19912;-37
2023/06/18 04:43:50;;;;;;;;;;;;;;;21.82;62.77;99251.78;5092365;28;20356;-36
2023/06/18 04:46:15;;;;;;;;;;;;;;;22.08;62.57;99253.38;5091630;28;20422;-37
2023/06/18 04:48:41;;;;;;;;;;;;;;;21.70;63.17;99256.00;5091361;28;19915;-35
2023/06/18 04:51:06;;;;;;;;;;;;;;;21.97;61.93;99260.81;5091186;28;19916;-37
2023/06/18 04:53:31;;;;;;;;;;;;;;;22.22;61.39;99263.19;5091267;28;20056;-37
2023/06/18 04:55:56;;;;;;;;;;;;;;;22.02;63.78;99268.88;5091168;28;19919;-37
2023/06/18 04:58:22;;;;;;;;;;;;;;;21.83;62.66;99268.84;5091436;28;19916;-37
2023/06/18 05:00:47;;;;;;;;;;;;;;;22.03;62.49;99273.22;5091266;28;19942;-37
2023/06/18 05:03:13;;;;;;;;;;;;;;;21.72;62.67;99275.47;5090841;28;20402;-35
2023/06/18 05:05:38;;;;;;;;;;;;;;;22.01;61.80;99278.13;5090852;28;20055;-36
2023/06/18 05:08:03;;;;;;;;;;;;;;;21.96;62.21;99281.69;5090935;28;19919;-36
2023/06/18 05:10:29;;;;;;;;;;;;;;;21.86;63.78;99274.50;5091044;28;19985;-36
2023/06/18 05:12:54;;;;;;;;;;;;;;;22.31;61.21;99281.53;5090917;28;19912;-36
2023/06/18 05:15:20;;;;;;;;;;;;;;;22.10;62.05;99292.59;5091082;28;20015;-36
2023/06/18 05:17:45;;;;;;;;;;;;;;;21.96;62.08;99286.28;5090612;28;20365;-36
2023/06/18 05:20:11;;;;;;;;;;;;;;;22.00;64.53;99295.44;5088739;28;20003;-37
2023/06/18 05:22:37;;;;;;;;;;;;;;;22.42;63.98;99288.41;5084959;28;19927;-36
2023/06/18 05:25:04;;;;;;;;;;;;;;;22.54;62.41;99291.50;5088101;28;19916;-36
2023/06/18 05:27:30;;;;;;;;;;;;;;;22.99;62.01;99293.78;5090714;28;20325;-36
2023/06/18 05:29:55;;;;;;;;;;;;;;;23.15;59.77;99294.34;5090156;28;19916;-35
2023/06/18 05:32:20;;;;;;;;;;;;;;;22.99;60.34;99300.00;5090315;28;19920;-37
2023/06/18 05:34:46;;;;;;;;;;;;;;;23.03;59.32;99303.78;5088425;28;20407;-37
2023/06/18 05:37:11;;;;;;;;;;;;;;;23.40;59.55;99306.69;5090783;28;20376;-37
2023/06/18 05:39:37;;;;;;;;;;;;;;;23.02;59.62;99310.28;5090816;28;19912;-36
2023/06/18 05:42:02;;;;;;;;;;;;;;;22.93;59.57;99309.34;5090938;28;19916;-36
2023/06/18 05:44:28;;;;;;;;;;;;;;;23.05;60.40;99319.75;5090587;28;19919;-36
2023/06/18 05:46:53;;;;;;;;;;;;;;;22.71;60.56;99311.84;5090265;28;19912;-36
2023/06/18 05:49:18;;;;;;;;;;;;;;;22.67;60.73;99310.84;5090600;28;19961;-36
2023/06/18 05:51:45;;;;;;;;;;;;;;;22.20;61.58;99316.88;5090416;28;20030;-36
2023/06/18 05:54:10;;;;;;;;;;;;;;;22.58;61.18;99313.38;5094618;28;20405;-36
2023/06/18 05:56:35;;;;;;;;;;;;;;;22.40;61.40;99321.22;5094462;28;20395;-37
2023/06/18 05:59:01;;;;;;;;;;;;;;;22.27;62.60;99315.72;5094486;28;19973;-37
2023/06/18 06:01:26;;;;;;;;;;;;;;;22.20;62.56;99324.19;5090966;28;19976;-37
2023/06/18 06:03:51;;;;;;;;;;;;;;;22.72;60.99;99325.13;5092467;28;19917;-36
2023/06/18 06:06:16;;;;;;;;;;;;;;;22.82;61.27;99329.59;5093982;28;19912;-37
2023/06/18 06:08:42;;;;;;;;;;;;;;;23.45;59.46;99313.94;5094359;28;20002;-36
2023/06/18 06:11:07;;;;;;;;;;;;;;;23.41;59.38;99327.28;5094599;28;20384;-36
2023/06/18 06:13:33;;;;;;;;;;;;;;;23.62;58.40;99322.28;5094643;28;19919;-37
2023/06/18 06:15:58;;;;;;;;;;;;;;;23.34;58.51;99322.28;5093480;28;19912;-37
2023/06/18 06:18:23;;;;;;;;;;;;;;;23.21;59.08;99333.91;5092912;28;19908;-37
2023/06/18 06:20:48;;;;;;;;;;;;;;;23.51;59.80;99331.72;5093032;28;19919;-35
2023/06/18 06:23:14;;;;;;;;;;;;;;;23.36;59.15;99327.38;5093104;28;19916;-36
2023/06/18 06:25:40;;;;;;;;;;;;;;;23.27;58.47;99326.47;5092667;28;19918;-44
2023/06/18 06:28:05;;;;;;;;;;;;;;;23.38;58.21;99320.56;5089131;28;19912;-42
2023/06/18 06:30:30;;;;;;;;;;;;;;;22.94;60.85;99331.84;5092964;28;19924;-42
2023/06/18 06:32:56;;;;;;;;;;;;;;;23.20;59.72;99337.69;5093433;28;19920;-42
2023/06/18 06:35:23;;;;;;;;;;;;;;;23.58;58.28;99324.81;5114214;28;19919;-43
2023/06/18 06:37:48;;;;;;;;;;;;;;;23.77;58.67;99334.78;5113549;28;19973;-42
2023/06/18 06:40:13;;;;;;;;;;;;;;;23.11;59.23;99331.34;5095608;28;19920;-43
2023/06/18 06:42:39;;;;;;;;;;;;;;;22.65;60.56;99324.69;5093536;28;19915;-43
2023/06/18 06:45:04;;;;;;;;;;;;;;;22.72;60.54;99335.19;5093850;28;19951;-43
2023/06/18 06:47:30;;;;;;;;;;;;;;;22.97;59.82;99339.41;5093553;28;19916;-42
2023/06/18 06:49:55;;;;;;;;;;;;;;;23.20;59.14;99337.69;5092337;28;20072;-43
2023/06/18 06:52:20;;;;;;;;;;;;;;;23.02;59.57;99339.34;5092607;28;19916;-44
2023/06/18 06:54:47;;;;;;;;;;;;;;;23.12;59.53;99344.63;5092704;28;20003;-42
2023/06/18 06:57:12;;;;;;;;;;;;;;;23.67;58.50;99341.22;5092687;28;19990;-42
2023/06/18 06:59:37;;;;;;;;;;;;;;;23.14;59.97;99347.03;5092651;28;19912;-43
2023/06/18 07:02:03;;;;;;;;;;;;;;;23.92;57.60;99350.81;5093129;28;19916;-43
2023/06/18 07:04:28;;;;;;;;;;;;;;;24.20;57.39;99346.19;5092610;28;20375;-42
2023/06/18 07:06:53;;;;;;;;;;;;;;;24.47;57.74;99354.63;5093285;28;20045;-44
2023/06/18 07:09:19;;;;;;;;;;;;;;;24.73;57.73;99352.16;5093389;28;20392;-43
2023/06/18 07:11:44;;;;;;;;;;;;;;;25.28;57.53;99354.66;5090263;28;19928;-44
2023/06/18 07:14:09;;;;;;;;;;;;;;;25.15;55.11;99359.06;5090325;28;19916;-43
2023/06/18 07:16:35;;;;;;;;;;;;;;;24.82;55.97;99358.47;5093618;28;20368;-42
2023/06/18 07:19:01;;;;;;;;;;;;;;;25.09;56.27;99362.19;5093201;28;20340;-41
2023/06/18 07:21:26;;;;;;;;;;;;;;;24.71;56.80;99362.53;5092795;28;19922;-42
2023/06/18 07:23:52;;;;;;;;;;;;;;;24.80;56.44;99368.84;5093217;28;19991;-42
2023/06/18 07:26:17;;;;;;;;;;;;;;;24.45;57.46;99373.16;5092957;28;20305;-42
2023/06/18 07:28:42;;;;;;;;;;;;;;;24.42;57.21;99369.13;5092874;28;19912;-42
2023/06/18 07:31:07;;;;;;;;;;;;;;;24.29;58.12;99370.72;5092351;28;19934;-41
2023/06/18 07:33:33;;;;;;;;;;;;;;;24.21;58.34;99360.56;5097368;28;19915;-42
2023/06/18 07:35:58;;;;;;;;;;;;;;;24.57;58.69;99378.88;5113202;28;20038;-41
2023/06/18 07:38:23;;;;;;;;;;;;;;;25.01;59.34;99368.38;5108388;28;19946;-41
2023/06/18 07:40:50;;;;;;;;;;;;;;;24.80;56.64;99373.50;5092903;28;19936;-42
2023/06/18 07:43:15;;;;;;;;;;;;;;;24.98;55.85;99377.97;5092806;28;19912;-43
2023/06/18 07:45:40;;;;;;;;;;;;;;;25.07;56.34;99378.03;5092627;28;20441;-43
2023/06/18 07:48:07;;;;;;;;;;;;;;;25.24;55.87;99380.09;5092201;28;19916;-42
2023/06/18 07:50:33;;;;;;;;;;;;;;;24.31;57.62;99376.69;5091342;28;19943;-40
2023/06/18 07:52:58;;;;;;;;;;;;;;;24.81;57.08;99380.53;5091212;28;20383;-42
2023/06/18 07:55:23;;;;;;;;;;;;;;;25.02;56.51;99372.69;5092036;28;19920;-42
2023/06/18 07:57:48;;;;;;;;;;;;;;;25.13;55.55;99379.50;5092061;28;20380;-41
2023/06/18 08:00:14;;;;;;;;;;;;;;;25.05;56.08;99377.53;5091875;28;20256;-43
2023/06/18 08:02:40;;;;;;;;;;;;;;;24.42;56.32;99379.19;5091886;28;19912;-40
2023/06/18 08:05:07;;;;;;;;;;;;;;;24.49;61.62;99385.81;5091770;28;19912;-40
2023/06/18 08:07:32;;;;;;;;;;;;;;;24.53;56.82;99380.63;5088759;28;19923;-36
2023/06/18 08:09:57;;;;;;;;;;;;;;;24.22;56.79;99383.94;5091453;28;19912;-35
2023/06/18 08:12:22;;;;;;;;;;;;;;;24.41;56.16;99383.84;5091714;28;19920;-36
2023/06/18 08:14:48;;;;;;;;;;;;;;;25.02;56.38;99384.41;5090920;28;19923;-37
2023/06/18 08:17:16;;;;;;;;;;;;;;;25.01;56.88;99387.44;5091964;28;20007;-36
2023/06/18 08:19:45;;;;;;;;;;;;;;;24.92;54.47;99384.63;5092066;28;19912;-36
2023/06/18 08:22:19;;;;;;;;;;;;;;;24.61;55.50;99396.19;5091762;28;19918;-37
2023/06/18 08:24:45;;;;;;;;;;;;;;;24.00;56.45;99388.16;5088573;28;19973;-36
2023/06/18 08:27:12;;;;;;;;;;;;;;;24.10;57.28;99394.50;5082396;28;19928;-36
2023/06/18 08:29:37;;;;;;;;;;;;;;;24.56;56.45;99393.59;5086114;28;19966;-37
2023/06/18 08:32:06;;;;;;;;;;;;;;;24.25;56.61;99394.19;5087447;28;19971;-35
2023/06/18 08:34:32;;;;;;;;;;;;;;;24.39;56.79;99389.56;5093226;28;19954;-36
2023/06/18 08:36:57;;;;;;;;;;;;;;;24.84;56.75;99391.63;5076731;28;19959;-36
2023/06/18 08:39:23;;;;;;;;;;;;;;;25.34;55.66;99393.47;5086853;28;20068;-36
2023/06/18 08:41:48;;;;;;;;;;;;;;;25.11;55.40;99395.34;5088431;28;20006;-36
2023/06/18 08:44:13;;;;;;;;;;;;;;;25.40;55.34;99400.41;5088163;28;19920;-36
2023/06/18 08:46:41;;;;;;;;;;;;;;;25.24;55.70;99399.97;5090191;28;20284;-36
2023/06/18 08:49:08;;;;;;;;;;;;;;;24.90;56.08;99404.00;5091612;28;19922;-35
2023/06/18 08:51:37;;;;;;;;;;;;;;;24.58;57.35;99399.56;5091604;28;19950;-36
2023/06/18 08:54:09;;;;;;;;;;;;;;;24.61;57.77;99406.28;5091757;28;19923;-38
2023/06/18 08:56:37;;;;;;;;;;;;;;;24.76;56.92;99387.72;5090825;28;19922;-37
2023/06/18 08:59:03;;;;;;;;;;;;;;;24.91;57.29;99411.03;5087479;28;19991;-35
2023/06/18 09:01:29;;;;;;;;;;;;;;;24.92;57.26;99401.78;5091532;28;19956;-37
2023/06/18 09:03:55;;;;;;;;;;;;;;;25.07;57.60;99400.59;5091624;28;19912;-37
2023/06/18 09:06:22;;;;;;;;;;;;;;;25.67;55.98;99409.53;5091480;28;20249;-36
2023/06/18 09:08:47;;;;;;;;;;;;;;;25.53;55.85;99396.81;5087970;28;19912;-36
2023/06/18 09:11:13;;;;;;;;;;;;;;;24.93;57.42;99408.81;5091333;28;19920;-37
2023/06/18 09:13:39;;;;;;;;;;;;;;;25.13;56.35;99410.28;5091395;28;20299;-36
2023/06/18 09:16:05;;;;;;;;;;;;;;;25.53;55.51;99407.72;5091311;28;19912;-37
2023/06/18 09:18:30;;;;;;;;;;;;;;;25.81;55.59;99407.53;5090934;28;19912;-36
2023/06/18 09:20:55;;;;;;;;;;;;;;;26.07;54.33;99409.59;5091628;28;19920;-37
2023/06/18 09:23:21;;;;;;;;;;;;;;;25.75;54.24;99412.28;5091114;28;20300;-37
2023/06/18 09:25:50;;;;;;;;;;;;;;;26.03;54.41;99414.09;5088918;28;19962;-36
2023/06/18 09:28:17;;;;;;;;;;;;;;;26.00;53.20;99409.25;5087145;28;19916;-34
2023/06/18 09:30:48;;;;;;;;;;;;;;;25.15;55.51;99408.06;5089561;28;19985;-37
2023/06/18 09:33:13;;;;;;;;;;;;;;;25.71;54.47;99411.31;5089735;28;19916;-37
2023/06/18 09:35:38;;;;;;;;;;;;;;;25.97;53.83;99409.88;5090157;28;19965;-35
2023/06/18 09:38:08;;;;;;;;;;;;;;;25.46;54.04;99399.16;5090335;28;20003;-36
2023/06/18 09:40:33;;;;;;;;;;;;;;;25.99;53.73;99407.63;5089489;28;19920;-37
2023/06/18 09:43:00;;;;;;;;;;;;;;;25.82;55.47;99395.53;5090770;28;20222;-37
2023/06/18 09:45:26;;;;;;;;;;;;;;;26.28;53.38;99399.72;5090545;28;20388;-36
2023/06/18 09:47:52;;;;;;;;;;;;;;;26.41;51.99;99395.28;5090853;28;19935;-36
2023/06/18 09:50:17;;;;;;;;;;;;;;;26.58;51.79;99391.78;5090737;28;20356;-36
2023/06/18 09:52:48;;;;;;;;;;;;;;;27.15;51.56;99401.78;5090457;28;20007;-36
2023/06/18 09:55:29;;;;;;;;;;;;;;;27.52;50.09;99399.50;5088271;28;19923;-35
2023/06/18 09:57:55;;;;;;;;;;;;;;;27.54;50.63;99399.97;5089164;28;19942;-36
2023/06/18 10:00:20;;;;;;;;;;;;;;;27.68;49.10;99408.81;5090750;28;19913;-36
2023/06/18 10:02:46;;;;;;;;;;;;;;;27.33;49.23;99402.59;5090433;28;19986;-36
2023/06/18 10:05:11;;;;;;;;;;;;;;;27.52;49.46;99404.19;5090626;28;19916;-36
2023/06/18 10:07:39;;;;;;;;;;;;;;;28.25;48.53;99401.34;5090689;28;19916;-36
2023/06/18 10:10:05;;;;;;;;;;;;;;;28.40;45.99;99387.09;5090095;28;20020;-36
2023/06/18 10:12:31;;;;;;;;;;;;;;;28.47;47.03;99392.84;5088882;28;20011;-35
2023/06/18 10:14:57;;;;;;;;;;;;;;;28.89;46.47;99385.84;5090024;28;19916;-36
2023/06/18 10:17:25;;;;;;;;;;;;;;;29.27;44.32;99388.41;5090026;28;19911;-37
2023/06/18 10:20:11;;;;;;;;;;;;;;;29.10;43.96;99389.34;5090443;28;19919;-36
2023/06/18 10:22:41;;;;;;;;;;;;;;;28.57;44.39;99388.94;5085987;28;19927;-37
2023/06/18 10:25:06;;;;;;;;;;;;;;;28.69;44.49;99393.69;5087489;28;20387;-36
2023/06/18 10:27:33;;;;;;;;;;;;;;;27.73;46.08;99390.63;5090051;28;19912;-36
2023/06/18 10:29:58;;;;;;;;;;;;;;;27.49;46.69;99378.28;5089869;28;20376;-37
2023/06/18 10:32:25;;;;;;;;;;;;;;;27.84;46.64;99380.94;5089964;28;20011;-37
2023/06/18 10:34:51;;;;;;;;;;;;;;;28.36;46.75;99386.16;5091823;28;19916;-37
2023/06/18 10:37:17;;;;;;;;;;;;;;;29.20;44.05;99382.69;5086576;28;19942;-37
2023/06/18 10:39:42;;;;;;;;;;;;;;;29.68;42.80;99374.94;5092656;28;20252;-38
2023/06/18 10:42:12;;;;;;;;;;;;;;;29.22;43.00;99381.19;5092869;28;20002;-38
2023/06/18 10:44:53;;;;;;;;;;;;;;;29.12;44.29;99378.84;5093198;28;20440;-36
2023/06/18 10:47:20;;;;;;;;;;;;;;;28.66;44.23;99370.53;5089554;28;20327;-41
2023/06/18 10:50:00;;;;;;;;;;;;;;;28.84;44.33;99365.75;5094046;28;19912;-43
2023/06/18 10:52:26;;;;;;;;;;;;;;;29.13;43.54;99372.28;5093203;28;19920;-37
2023/06/18 10:54:55;;;;;;;;;;;;;;;28.68;43.98;99364.72;5094022;28;20364;-36
2023/06/18 10:57:25;;;;;;;;;;;;;;;28.58;43.99;99368.69;5094226;28;19946;-36
2023/06/18 10:59:50;;;;;;;;;;;;;;;28.73;43.75;99367.28;5093948;28;19947;-36
2023/06/18 11:02:28;;;;;;;;;;;;;;;28.35;44.70;99356.38;5093696;28;19974;-36
2023/06/18 11:04:54;;;;;;;;;;;;;;;29.00;43.57;99356.91;5091654;28;20011;-37
2023/06/18 11:07:23;;;;;;;;;;;;;;;29.82;42.69;99361.72;5090614;28;20372;-37
2023/06/18 11:09:52;;;;;;;;;;;;;;;29.20;43.82;99347.06;5090542;28;19939;-36
2023/06/18 11:12:18;;;;;;;;;;;;;;;28.77;43.08;99350.97;5090465;28;20281;-36
2023/06/18 11:15:03;;;;;;;;;;;;;;;28.76;43.89;99343.91;5092056;28;19912;-37
2023/06/18 11:17:29;;;;;;;;;;;;;;;28.58;44.97;99354.19;5091969;28;19944;-37
2023/06/18 11:19:54;;;;;;;;;;;;;;;29.33;42.55;99340.47;5092748;28;19958;-35
2023/06/18 11:22:20;;;;;;;;;;;;;;;29.35;42.79;99337.41;5092944;28;19969;-41
2023/06/18 11:24:46;;;;;;;;;;;;;;;28.62;43.77;99338.72;5093194;28;19922;-42
2023/06/18 11:27:13;;;;;;;;;;;;;;;28.23;44.95;99343.44;5093251;28;19912;-42
2023/06/18 11:29:39;;;;;;;;;;;;;;;28.51;44.63;99342.94;5093037;28;19919;-42
2023/06/18 11:32:14;;;;;;;;;;;;;;;29.07;44.77;99337.97;5093129;28;19928;-43
2023/06/18 11:34:43;;;;;;;;;;;;;;;29.46;43.03;99335.03;5107264;28;20030;-43
2023/06/18 11:37:09;;;;;;;;;;;;;;;29.49;43.12;99328.88;5113057;27;19998;-42
2023/06/18 11:39:35;;;;;;;;;;;;;;;28.96;43.28;99329.41;5113600;28;19912;-42
2023/06/18 11:42:13;;;;;;;;;;;;;;;29.63;42.45;99321.13;5113433;27;20326;-42
2023/06/18 11:44:45;;;;;;;;;;;;;;;29.53;42.12;99324.31;5113421;28;20302;-42
2023/06/18 11:47:11;;;;;;;;;;;;;;;28.95;43.56;99321.50;5113214;28;19916;-43
2023/06/18 11:49:36;;;;;;;;;;;;;;;29.45;42.45;99323.25;5113066;28;20430;-43
2023/06/18 11:52:02;;;;;;;;;;;;;;;29.32;42.63;99316.16;5113462;28;20018;-42
2023/06/18 11:54:27;;;;;;;;;;;;;;;29.32;42.71;99316.16;5113575;28;19912;-42
2023/06/18 11:56:54;;;;;;;;;;;;;;;29.57;42.99;99312.34;5113210;28;19934;-42
2023/06/18 11:59:20;;;;;;;;;;;;;;;29.12;43.31;99312.31;5112927;28;19918;-43
2023/06/18 12:01:45;;;;;;;;;;;;;;;29.03;43.38;99315.13;5113277;28;19912;-43
2023/06/18 12:04:10;;;;;;;;;;;;;;;28.75;43.93;99309.44;5113295;28;19915;-42
2023/06/18 12:06:37;;;;;;;;;;;;;;;28.79;43.70;99302.97;5113158;28;19911;-42
2023/06/18 12:09:03;;;;;;;;;;;;;;;29.13;43.46;99295.59;5112879;28;19912;-42
2023/06/18 12:11:38;;;;;;;;;;;;;;;28.74;44.38;99307.84;5112870;28;19955;-43
2023/06/18 12:14:07;;;;;;;;;;;;;;;28.84;43.00;99296.47;5113260;28;19938;-44
2023/06/18 12:16:35;;;;;;;;;;;;;;;29.09;43.26;99291.88;5112706;28;19915;-43
2023/06/18 12:19:03;;;;;;;;;;;;;;;29.25;42.55;99283.84;5112460;28;20418;-42
2023/06/18 12:21:29;;;;;;;;;;;;;;;28.90;44.12;99283.38;5112796;28;19918;-42
2023/06/18 12:23:56;;;;;;;;;;;;;;;28.71;43.42;99286.59;5112745;28;19911;-42
2023/06/18 12:26:23;;;;;;;;;;;;;;;28.55;43.20;99275.50;5112852;28;19911;-43
2023/06/18 12:28:49;;;;;;;;;;;;;;;28.68;42.46;99277.16;5112686;28;20001;-44
2023/06/18 12:31:15;;;;;;;;;;;;;;;29.34;42.01;99273.59;5111863;28;20340;-42
2023/06/18 12:33:42;;;;;;;;;;;;;;;29.66;42.37;99268.34;5106751;28;20301;-44
2023/06/18 12:36:08;;;;;;;;;;;;;;;30.37;39.66;99272.53;5092395;28;19979;-42
2023/06/18 12:38:45;;;;;;;;;;;;;;;30.19;39.32;99277.47;5091597;28;20376;-42
2023/06/18 12:41:19;;;;;;;;;;;;;;;29.78;40.57;99284.06;5092060;28;19912;-42
2023/06/18 12:43:44;;;;;;;;;;;;;;;30.14;39.22;99276.91;5091413;28;20368;-42